Time;durP1;ratioP1;P1;durP2;ratioP2;P2;SDS_P1;SDS_P2;PMS_P1;PMS_P2;Temp;Humidity;BMP_temperature;BMP_pressure;BME280_temperature;BME280_humidity;BME280_pressure;Samples;Min_cycle;Max_cycle;Signal;HPM_P1;HPM_P2
2022/08/19 00:01:31;;;;;;;9.77;8.77;;;23.30;99.90;;;;;;5053591;28;20075;-68
2022/08/19 00:04:02;;;;;;;10.30;9.20;;;23.30;99.90;;;;;;5056375;28;20029;-68
2022/08/19 00:06:29;;;;;;;10.93;9.02;;;23.30;99.90;;;;;;5052222;28;20104;-68
2022/08/19 00:08:56;;;;;;;10.68;9.38;;;23.40;99.90;;;;;;5075148;28;20352;-69
2022/08/19 00:11:22;;;;;;;9.65;8.65;;;23.40;99.90;;;;;;5052560;28;20071;-69
2022/08/19 00:13:49;;;;;;;10.98;8.93;;;23.30;99.90;;;;;;5053499;28;20060;-69
2022/08/19 00:16:20;;;;;;;11.45;8.95;;;23.30;99.90;;;;;;5052409;28;20040;-69
2022/08/19 00:18:46;;;;;;;10.32;9.23;;;23.30;99.90;;;;;;5053839;28;20037;-68
2022/08/19 00:21:12;;;;;;;9.80;8.82;;;23.40;99.90;;;;;;5051055;28;20400;-69
2022/08/19 00:23:37;;;;;;;10.02;9.00;;;23.40;99.90;;;;;;5054046;28;20029;-69
2022/08/19 00:26:04;;;;;;;11.05;9.57;;;23.30;99.90;;;;;;5052187;28;20103;-69
2022/08/19 00:28:30;;;;;;;9.68;8.68;;;23.30;99.90;;;;;;5053184;28;20036;-69
2022/08/19 00:30:56;;;;;;;10.30;9.30;;;23.30;99.90;;;;;;5050903;28;20028;-69
2022/08/19 00:33:21;;;;;;;11.60;9.90;;;23.30;99.90;;;;;;5040236;28;20056;-69
2022/08/19 00:35:47;;;;;;;10.68;9.55;;;23.20;99.90;;;;;;5053507;28;20033;-68
2022/08/19 00:38:14;;;;;;;10.75;9.43;;;23.30;99.90;;;;;;5051562;28;20025;-68
2022/08/19 00:40:41;;;;;;;10.80;9.48;;;23.30;99.90;;;;;;5052631;28;20032;-68
2022/08/19 00:43:12;;;;;;;12.23;10.10;;;23.20;99.90;;;;;;5052515;28;20033;-69
2022/08/19 00:45:43;;;;;;;12.38;10.27;;;23.20;99.90;;;;;;5052697;28;20029;-68
2022/08/19 00:48:10;;;;;;;12.52;11.23;;;23.30;99.90;;;;;;5037034;28;20071;-68
2022/08/19 00:50:36;;;;;;;14.30;11.63;;;23.30;99.90;;;;;;5053085;28;20036;-70
2022/08/19 00:53:03;;;;;;;12.30;10.75;;;23.20;99.90;;;;;;5051885;28;20032;-70
2022/08/19 00:55:32;;;;;;;13.00;11.00;;;23.20;99.90;;;;;;5053375;28;20025;-69
2022/08/19 00:58:07;;;;;;;14.07;12.52;;;23.20;99.90;;;;;;5050859;28;20108;-68
2022/08/19 01:00:36;;;;;;;14.13;11.13;;;23.10;99.90;;;;;;5052964;28;20075;-68
2022/08/19 01:03:09;;;;;;;11.90;10.00;;;23.10;99.90;;;;;;5051292;28;20040;-68
2022/08/19 01:05:36;;;;;;;13.70;12.07;;;23.00;99.90;;;;;;5053054;28;20049;-69
2022/08/19 01:08:04;;;;;;;14.52;12.27;;;23.00;99.90;;;;;;5051356;28;20071;-69
2022/08/19 01:10:36;;;;;;;14.68;12.10;;;23.00;99.90;;;;;;5052750;28;20116;-68
2022/08/19 01:13:03;;;;;;;12.93;11.63;;;22.90;99.90;;;;;;5050032;28;20029;-69
2022/08/19 01:15:33;;;;;;;12.90;11.57;;;22.90;99.90;;;;;;5053381;28;20075;-69
2022/08/19 01:18:03;;;;;;;12.52;11.20;;;22.90;99.90;;;;;;5050758;28;20029;-69
2022/08/19 01:20:29;;;;;;;12.57;11.27;;;22.90;99.90;;;;;;5052767;28;20074;-70
2022/08/19 01:22:57;;;;;;;13.90;12.40;;;22.90;99.90;;;;;;5051915;28;20033;-69
2022/08/19 01:25:35;;;;;;;12.98;11.63;;;22.90;99.90;;;;;;5050865;28;20071;-69
2022/08/19 01:28:02;;;;;;;12.27;10.97;;;22.90;99.90;;;;;;5050100;28;20029;-69
2022/08/19 01:30:31;;;;;;;12.60;11.18;;;22.90;99.90;;;;;;5051755;28;20076;-69
2022/08/19 01:32:57;;;;;;;12.68;11.35;;;22.80;99.90;;;;;;5051149;28;20028;-69
2022/08/19 01:35:26;;;;;;;12.88;11.13;;;22.70;99.90;;;;;;5049713;28;20501;-69
2022/08/19 01:37:58;;;;;;;13.23;11.95;;;22.70;99.90;;;;;;5056410;28;20052;-70
2022/08/19 01:40:27;;;;;;;13.77;12.00;;;22.70;99.90;;;;;;5048851;28;20091;-69
2022/08/19 01:42:53;;;;;;;12.93;11.52;;;22.60;99.90;;;;;;5051631;28;20029;-69
2022/08/19 01:45:21;;;;;;;13.85;12.45;;;22.60;99.90;;;;;;5051183;28;20068;-69
2022/08/19 01:47:48;;;;;;;14.63;12.90;;;22.50;99.90;;;;;;5047938;28;20420;-69
2022/08/19 01:50:14;;;;;;;15.68;12.52;;;22.40;99.90;;;;;;5049510;28;20545;-71
2022/08/19 01:52:41;;;;;;;17.65;13.48;;;22.30;99.90;;;;;;5050257;28;20084;-70
2022/08/19 01:55:10;;;;;;;14.85;13.35;;;22.10;99.90;;;;;;5051598;28;20040;-70
2022/08/19 01:57:37;;;;;;;15.07;13.48;;;22.00;99.90;;;;;;5050351;28;20028;-71
2022/08/19 02:00:09;;;;;;;15.80;13.25;;;21.90;99.90;;;;;;5051564;28;20029;-71
2022/08/19 02:02:34;;;;;;;15.15;12.85;;;21.90;99.90;;;;;;5050033;28;20028;-70
2022/08/19 02:05:00;;;;;;;18.65;13.73;;;21.70;99.90;;;;;;5050992;28;20033;-70
2022/08/19 02:07:28;;;;;;;16.13;13.55;;;21.80;99.90;;;;;;5049727;28;20037;-69
2022/08/19 02:09:54;;;;;;;16.17;12.98;;;21.70;99.90;;;;;;5051454;28;20041;-69
2022/08/19 02:12:20;;;;;;;14.60;13.07;;;21.80;99.90;;;;;;5051185;28;20384;-69
2022/08/19 02:14:46;;;;;;;17.58;14.38;;;21.80;99.90;;;;;;5051128;28;20036;-70
2022/08/19 02:17:11;;;;;;;17.98;14.18;;;21.80;99.90;;;;;;5050277;28;20056;-70
2022/08/19 02:19:37;;;;;;;17.70;13.77;;;21.70;99.90;;;;;;5050547;28;20064;-70
2022/08/19 02:22:03;;;;;;;14.00;12.45;;;21.60;99.90;;;;;;5050089;28;20422;-71
2022/08/19 02:24:28;;;;;;;15.82;12.18;;;21.60;99.90;;;;;;5051857;28;20369;-71
2022/08/19 02:26:54;;;;;;;14.38;12.88;;;21.60;99.90;;;;;;5049838;28;20068;-71
2022/08/19 02:29:20;;;;;;;13.07;11.77;;;21.70;99.90;;;;;;5049990;28;20033;-71
2022/08/19 02:31:45;;;;;;;14.45;11.75;;;21.70;99.90;;;;;;5050585;28;20028;-71
2022/08/19 02:34:11;;;;;;;14.18;12.68;;;21.70;99.90;;;;;;5051322;28;20119;-71
2022/08/19 02:36:37;;;;;;;16.70;12.45;;;21.70;99.90;;;;;;5047648;28;20430;-71
2022/08/19 02:39:03;;;;;;;14.32;12.60;;;21.70;99.90;;;;;;5044964;28;20036;-71
2022/08/19 02:41:31;;;;;;;17.80;15.30;;;21.70;99.90;;;;;;5050423;28;20107;-71
2022/08/19 02:43:58;;;;;;;19.15;15.65;;;21.70;99.90;;;;;;5051398;28;20029;-71
2022/08/19 02:46:29;;;;;;;18.23;16.38;;;21.70;99.90;;;;;;5032450;28;20025;-71
2022/08/19 02:48:59;;;;;;;20.23;16.10;;;21.70;99.90;;;;;;5048982;28;20032;-71
2022/08/19 02:51:31;;;;;;;19.27;16.90;;;21.70;99.90;;;;;;5050399;28;20025;-69
2022/08/19 02:53:57;;;;;;;17.85;15.95;;;21.70;99.90;;;;;;5037845;28;20111;-69
2022/08/19 02:56:24;;;;;;;17.60;14.95;;;21.70;99.90;;;;;;5054267;28;20609;-69
2022/08/19 02:58:50;;;;;;;15.95;14.23;;;21.80;99.90;;;;;;5055134;28;20107;-69
2022/08/19 03:01:31;;;;;;;15.30;13.30;;;21.70;99.90;;;;;;5054253;28;20021;-70
2022/08/19 03:03:59;;;;;;;16.25;13.27;;;21.70;99.90;;;;;;5053808;28;20411;-69
2022/08/19 03:06:24;;;;;;;15.55;13.43;;;21.70;99.90;;;;;;5053716;28;20484;-69
2022/08/19 03:08:51;;;;;;;17.40;13.73;;;21.70;99.90;;;;;;5054166;28;20039;-69
2022/08/19 03:11:21;;;;;;;15.32;13.73;;;21.70;99.90;;;;;;5039509;28;20025;-70
2022/08/19 03:13:48;;;;;;;15.50;13.85;;;21.70;99.90;;;;;;5069948;28;20039;-70
2022/08/19 03:16:14;;;;;;;15.52;13.55;;;21.70;99.90;;;;;;5054849;28;20036;-70
2022/08/19 03:18:40;;;;;;;15.88;13.80;;;21.60;99.90;;;;;;5054342;28;20025;-70
2022/08/19 03:21:06;;;;;;;14.63;13.02;;;21.60;99.90;;;;;;5051834;28;20032;-70
2022/08/19 03:23:32;;;;;;;15.35;12.85;;;21.60;99.90;;;;;;5055044;28;20033;-70
2022/08/19 03:26:04;;;;;;;13.40;11.60;;;21.60;99.90;;;;;;5053316;28;20083;-70
2022/08/19 03:28:29;;;;;;;14.23;11.88;;;21.60;99.90;;;;;;5054862;28;20407;-70
2022/08/19 03:31:01;;;;;;;14.15;12.55;;;21.50;99.90;;;;;;5052453;28;20082;-70
2022/08/19 03:33:29;;;;;;;14.75;13.15;;;21.50;99.90;;;;;;5055056;28;20025;-70
2022/08/19 03:36:10;;;;;;;13.48;12.05;;;21.50;99.90;;;;;;5052720;28;20029;-71
2022/08/19 03:38:38;;;;;;;17.17;12.88;;;21.50;99.90;;;;;;5054260;28;20024;-70
2022/08/19 03:41:12;;;;;;;16.92;13.55;;;21.50;99.90;;;;;;5052130;28;20033;-70
2022/08/19 03:43:39;;;;;;;15.88;13.13;;;21.40;99.90;;;;;;5054858;28;20519;-70
2022/08/19 03:46:08;;;;;;;14.82;13.32;;;21.40;99.90;;;;;;5052355;28;20039;-70
2022/08/19 03:48:36;;;;;;;14.88;13.27;;;21.40;99.90;;;;;;5054557;28;20024;-70
2022/08/19 03:51:02;;;;;;;17.50;14.80;;;21.40;99.90;;;;;;5052592;28;20033;-70
2022/08/19 03:53:29;;;;;;;14.95;13.45;;;21.40;99.90;;;;;;5054761;28;20017;-68
2022/08/19 03:55:55;;;;;;;15.52;13.70;;;21.30;99.90;;;;;;5053038;28;20036;-67
2022/08/19 03:58:22;;;;;;;15.85;14.25;;;21.30;99.90;;;;;;5054072;28;20498;-67
2022/08/19 04:00:48;;;;;;;16.00;14.15;;;21.30;99.90;;;;;;5057885;28;20095;-68
2022/08/19 04:03:14;;;;;;;15.40;13.65;;;21.30;99.90;;;;;;5054214;28;20025;-67
2022/08/19 04:05:39;;;;;;;14.35;12.85;;;21.30;99.90;;;;;;5051864;28;20102;-67
2022/08/19 04:08:05;;;;;;;14.80;13.20;;;21.30;99.90;;;;;;5050657;28;20029;-68
2022/08/19 04:10:35;;;;;;;16.60;14.35;;;21.30;99.90;;;;;;5059525;28;20028;-68
2022/08/19 04:13:01;;;;;;;16.33;14.15;;;21.30;99.90;;;;;;5054571;28;20025;-68
2022/08/19 04:15:28;;;;;;;17.05;15.02;;;21.30;99.90;;;;;;5051593;28;20484;-67
2022/08/19 04:17:54;;;;;;;14.60;13.10;;;21.30;99.90;;;;;;5053623;28;20037;-68
2022/08/19 04:20:20;;;;;;;15.65;14.00;;;21.30;99.90;;;;;;5052423;28;20044;-69
2022/08/19 04:22:45;;;;;;;15.80;13.57;;;21.30;99.90;;;;;;5054365;28;20500;-69
2022/08/19 04:25:11;;;;;;;14.65;13.05;;;21.30;99.90;;;;;;5052672;28;20025;-68
2022/08/19 04:27:37;;;;;;;14.57;13.07;;;21.30;99.90;;;;;;5051641;28;20372;-68
2022/08/19 04:30:03;;;;;;;14.85;13.30;;;21.30;99.90;;;;;;5051244;28;20025;-68
2022/08/19 04:32:31;;;;;;;15.45;13.88;;;21.40;99.90;;;;;;5051565;28;20036;-68
2022/08/19 04:34:58;;;;;;;15.75;13.07;;;21.40;99.90;;;;;;5052656;28;20107;-68
2022/08/19 04:37:26;;;;;;;16.83;13.18;;;21.40;99.90;;;;;;5053172;28;20021;-68
2022/08/19 04:42:39;;;;;;;15.32;13.73;;;21.50;99.90;;;;;;5036056;28;20035;-68
2022/08/19 04:45:11;;;;;;;15.25;13.18;;;21.50;99.90;;;;;;5052143;28;20035;-67
2022/08/19 04:47:39;;;;;;;15.65;13.85;;;21.50;99.90;;;;;;5036478;28;20025;-67
2022/08/19 04:50:06;;;;;;;15.68;13.63;;;21.50;99.90;;;;;;5051279;28;20047;-68
2022/08/19 04:52:31;;;;;;;16.08;14.10;;;21.50;99.90;;;;;;5053450;28;20037;-68
2022/08/19 04:54:58;;;;;;;14.40;12.85;;;21.50;99.90;;;;;;5053799;28;20029;-68
2022/08/19 04:57:24;;;;;;;16.15;13.23;;;21.60;99.90;;;;;;5046580;28;20064;-68
2022/08/19 04:59:54;;;;;;;15.65;14.07;;;21.60;99.90;;;;;;5047808;28;20048;-68
2022/08/19 05:02:20;;;;;;;15.57;13.90;;;21.60;99.90;;;;;;5051244;28;20036;-68
2022/08/19 05:04:45;;;;;;;15.45;13.55;;;21.60;99.90;;;;;;5033452;28;20026;-69
2022/08/19 05:07:11;;;;;;;16.45;14.57;;;21.70;99.90;;;;;;5051125;28;20123;-68
2022/08/19 05:09:37;;;;;;;15.10;13.55;;;21.70;99.90;;;;;;5052459;28;20037;-67
2022/08/19 05:12:03;;;;;;;16.90;15.20;;;21.70;99.90;;;;;;5033217;28;20033;-69
2022/08/19 05:14:29;;;;;;;19.70;14.38;;;21.70;99.90;;;;;;5052366;28;20060;-68
2022/08/19 05:16:54;;;;;;;14.65;13.15;;;21.80;99.90;;;;;;5047550;28;20433;-68
2022/08/19 05:24:48;;;;;;;16.83;14.50;;;21.90;99.90;;;;;;5048665;28;20534;-69
2022/08/19 05:27:14;;;;;;;15.55;13.95;;;21.80;99.90;;;;;;5050591;28;20033;-69
2022/08/19 05:29:39;;;;;;;15.07;13.63;;;21.90;99.90;;;;;;5051952;28;20032;-69
2022/08/19 05:32:10;;;;;;;16.38;13.45;;;21.80;99.90;;;;;;5051044;28;20075;-69
2022/08/19 05:34:37;;;;;;;14.68;13.13;;;21.90;99.90;;;;;;5051132;28;20440;-68
2022/08/19 05:37:04;;;;;;;16.45;14.18;;;21.90;99.90;;;;;;5051324;28;20044;-68
2022/08/19 05:39:32;;;;;;;17.17;13.57;;;21.90;99.90;;;;;;5051891;28;20388;-68
2022/08/19 05:42:01;;;;;;;14.98;13.38;;;21.90;99.90;;;;;;5051753;28;20033;-68
2022/08/19 05:44:32;;;;;;;15.15;13.65;;;21.90;99.90;;;;;;5050857;28;20061;-68
2022/08/19 05:46:59;;;;;;;14.38;12.98;;;22.00;99.90;;;;;;5050382;28;20108;-68
2022/08/19 05:49:26;;;;;;;14.32;12.88;;;22.00;99.90;;;;;;5050517;28;20086;-68
2022/08/19 05:51:52;;;;;;;14.57;12.93;;;22.00;99.90;;;;;;5050700;28;20438;-68
2022/08/19 05:54:19;;;;;;;15.40;13.07;;;22.00;99.90;;;;;;5050870;28;20064;-68
2022/08/19 05:56:47;;;;;;;15.18;13.30;;;22.10;99.90;;;;;;5050483;28;20029;-68
2022/08/19 05:59:13;;;;;;;15.10;13.60;;;22.10;99.90;;;;;;5046419;28;20480;-69
2022/08/19 06:01:44;;;;;;;16.02;13.82;;;22.10;99.90;;;;;;5050950;28;20079;-67
2022/08/19 06:04:11;;;;;;;15.88;14.18;;;22.20;99.90;;;;;;5052224;28;20109;-67
2022/08/19 06:06:36;;;;;;;14.82;13.30;;;22.20;99.90;;;;;;5050034;28;20060;-66
2022/08/19 06:09:04;;;;;;;14.38;12.82;;;22.30;99.90;;;;;;5017357;28;20041;-68
2022/08/19 06:11:40;;;;;;;15.27;13.55;;;22.30;99.90;;;;;;5047866;28;20025;-66
2022/08/19 06:14:09;;;;;;;17.25;14.85;;;22.40;99.90;;;;;;5035576;28;20507;-66
2022/08/19 06:16:38;;;;;;;15.20;13.60;;;22.50;99.90;;;;;;5050586;28;20029;-65
2022/08/19 06:19:07;;;;;;;15.75;14.05;;;22.50;99.90;;;;;;5032731;28;20054;-67
2022/08/19 06:21:34;;;;;;;16.95;13.48;;;22.50;99.90;;;;;;5047801;28;20045;-67
2022/08/19 06:23:59;;;;;;;15.73;13.80;;;22.60;99.90;;;;;;5051438;28;20119;-67
2022/08/19 06:26:26;;;;;;;15.60;14.00;;;22.60;99.90;;;;;;5045857;28;20116;-67
2022/08/19 06:28:52;;;;;;;16.13;14.13;;;22.70;99.90;;;;;;5047205;28;20048;-67
2022/08/19 06:31:21;;;;;;;17.13;14.48;;;22.70;99.90;;;;;;5049819;28;20056;-67
2022/08/19 06:33:48;;;;;;;18.10;15.38;;;22.70;99.90;;;;;;5049483;28;20037;-66
2022/08/19 06:36:42;;;;;;;16.98;15.25;;;22.80;99.90;;;;;;5031145;28;20082;-67
2022/08/19 06:39:11;;;;;;;16.10;14.50;;;22.80;99.90;;;;;;5037323;28;20025;-67
2022/08/19 06:41:40;;;;;;;17.90;15.13;;;22.80;99.90;;;;;;5028333;28;20037;-69
2022/08/19 06:44:06;;;;;;;16.63;14.90;;;22.80;99.90;;;;;;5049781;28;20480;-69
2022/08/19 06:46:36;;;;;;;16.52;14.73;;;22.90;99.90;;;;;;5049982;28;20044;-69
2022/08/19 06:49:03;;;;;;;16.70;15.05;;;22.90;99.90;;;;;;5031488;28;20048;-68
2022/08/19 06:51:32;;;;;;;16.48;14.73;;;23.00;99.90;;;;;;5048590;28;20507;-68
2022/08/19 06:53:58;;;;;;;17.83;15.82;;;23.00;99.90;;;;;;5048388;28;20484;-68
2022/08/19 06:56:31;;;;;;;16.92;15.23;;;23.10;99.90;;;;;;5044640;28;20025;-68
2022/08/19 06:58:57;;;;;;;16.58;14.95;;;23.10;99.90;;;;;;5042353;28;20037;-69
2022/08/19 07:01:23;;;;;;;16.58;14.95;;;23.20;99.90;;;;;;5037802;28;20025;-69
2022/08/19 07:03:49;;;;;;;16.52;14.93;;;23.30;99.90;;;;;;5046460;28;20047;-69
2022/08/19 07:06:19;;;;;;;17.85;15.90;;;23.30;99.90;;;;;;5048199;28;20480;-69
2022/08/19 07:08:46;;;;;;;17.52;14.95;;;23.30;99.90;;;;;;5048384;28;20021;-69
2022/08/19 07:11:15;;;;;;;17.52;15.80;;;23.40;99.90;;;;;;5046127;28;20044;-67
2022/08/19 07:13:43;;;;;;;17.40;14.82;;;23.40;99.90;;;;;;5051518;28;20036;-70
2022/08/19 07:16:12;;;;;;;19.70;16.85;;;23.40;99.90;;;;;;5034118;28;20032;-71
2022/08/19 07:18:39;;;;;;;18.83;15.40;;;23.40;99.90;;;;;;5050618;28;20102;-68
2022/08/19 07:21:09;;;;;;;18.45;15.15;;;23.50;99.90;;;;;;5049395;28;20029;-68
2022/08/19 07:23:35;;;;;;;16.63;14.88;;;23.50;99.90;;;;;;5051168;28;20112;-69
2022/08/19 07:26:06;;;;;;;16.98;15.15;;;23.50;99.90;;;;;;5049247;28;20098;-68
2022/08/19 07:28:32;;;;;;;16.48;14.70;;;23.50;99.90;;;;;;5047852;28;20090;-71
2022/08/19 07:30:58;;;;;;;17.73;15.82;;;23.50;99.90;;;;;;5049805;28;20056;-69
2022/08/19 07:33:23;;;;;;;16.75;15.05;;;23.50;99.90;;;;;;5050370;28;20028;-69
2022/08/19 07:35:49;;;;;;;20.10;15.63;;;23.60;99.90;;;;;;5028962;28;20040;-67
2022/08/19 07:38:16;;;;;;;17.58;15.77;;;23.60;99.90;;;;;;5032516;28;20013;-68
2022/08/19 07:40:43;;;;;;;16.15;14.50;;;23.60;99.90;;;;;;5046770;28;20043;-67
2022/08/19 07:43:09;;;;;;;16.05;14.32;;;23.70;99.90;;;;;;5050835;28;20025;-67
2022/08/19 07:45:34;;;;;;;18.33;15.43;;;23.80;99.90;;;;;;5052657;28;20538;-67
2022/08/19 07:48:00;;;;;;;16.70;14.98;;;23.80;99.90;;;;;;5051801;28;20616;-67
2022/08/19 07:50:26;;;;;;;16.77;15.07;;;23.90;99.90;;;;;;5052087;28;20111;-68
2022/08/19 07:52:52;;;;;;;18.88;15.30;;;23.90;99.90;;;;;;5052596;28;20060;-68
2022/08/19 07:55:20;;;;;;;18.00;16.23;;;23.90;99.90;;;;;;5049735;28;20044;-69
2022/08/19 07:57:46;;;;;;;16.63;14.98;;;24.00;99.90;;;;;;5051816;28;20419;-67
2022/08/19 08:00:12;;;;;;;18.25;15.93;;;24.00;99.90;;;;;;5051125;28;20112;-67
2022/08/19 08:02:39;;;;;;;18.15;16.15;;;24.00;99.90;;;;;;5052352;28;20033;-68
2022/08/19 08:10:33;;;;;;;16.42;14.80;;;24.00;99.90;;;;;;5049494;28;20033;-68
2022/08/19 08:12:59;;;;;;;16.10;14.40;;;24.10;99.90;;;;;;5051225;28;20490;-68
2022/08/19 08:15:24;;;;;;;18.30;16.45;;;24.00;99.90;;;;;;5048236;28;20043;-68
2022/08/19 08:17:50;;;;;;;16.90;15.18;;;24.10;99.90;;;;;;5050628;28;20024;-68
2022/08/19 08:20:17;;;;;;;16.73;15.13;;;24.10;99.90;;;;;;5049588;28;20048;-68
2022/08/19 08:25:30;;;;;;;16.45;14.90;;;24.20;99.90;;;;;;5052022;28;20115;-68
2022/08/19 08:27:59;;;;;;;18.10;16.30;;;24.30;99.90;;;;;;5054886;28;20400;-68
2022/08/19 08:30:27;;;;;;;18.20;15.98;;;24.40;99.90;;;;;;5050067;28;20061;-68
2022/08/19 08:32:53;;;;;;;16.77;15.07;;;24.40;99.90;;;;;;5052156;28;20040;-68
2022/08/19 08:35:23;;;;;;;16.98;15.23;;;24.50;99.90;;;;;;5049902;28;20676;-68
2022/08/19 08:37:51;;;;;;;16.70;15.00;;;24.60;99.90;;;;;;5054048;28;20029;-69
2022/08/19 08:40:43;;;;;;;17.35;15.55;;;24.70;99.90;;;;;;5053421;28;20021;-68
2022/08/19 08:43:23;;;;;;;17.48;15.38;;;24.80;99.90;;;;;;5052259;28;20036;-68
2022/08/19 08:45:56;;;;;;;18.38;16.25;;;24.90;99.90;;;;;;5049290;28;20062;-67
2022/08/19 08:48:33;;;;;;;20.00;16.17;;;25.00;99.90;;;;;;5018147;28;20026;-67
2022/08/19 08:51:01;;;;;;;16.65;14.95;;;25.10;99.90;;;;;;5050048;28;20404;-67
2022/08/19 08:53:27;;;;;;;17.52;15.18;;;25.20;99.90;;;;;;5051040;28;20925;-67
2022/08/19 08:55:53;;;;;;;18.27;16.35;;;25.30;99.90;;;;;;5029583;28;20064;-67
2022/08/19 08:58:28;;;;;;;16.95;15.25;;;25.20;99.90;;;;;;5052165;28;20060;-67
2022/08/19 09:00:53;;;;;;;17.85;16.08;;;25.30;99.90;;;;;;5049944;28;20143;-67
2022/08/19 09:03:23;;;;;;;15.88;14.27;;;25.40;99.90;;;;;;5050740;28;20519;-67
2022/08/19 09:06:03;;;;;;;16.70;15.10;;;25.40;99.90;;;;;;5048419;28;20052;-67
2022/08/19 09:08:40;;;;;;;17.35;15.65;;;25.40;99.90;;;;;;5043282;28;20029;-68
2022/08/19 09:11:14;;;;;;;18.52;16.58;;;25.40;99.90;;;;;;5044051;28;20423;-68
2022/08/19 09:14:08;;;;;;;18.25;16.45;;;25.40;99.90;;;;;;5051732;28;20025;-68
2022/08/19 09:16:35;;;;;;;18.30;16.55;;;25.40;99.90;;;;;;5049583;28;20500;-68
2022/08/19 09:19:05;;;;;;;19.08;17.17;;;25.50;99.90;;;;;;5040581;28;20132;-68
2022/08/19 09:21:30;;;;;;;16.83;15.30;;;25.60;99.90;;;;;;5051543;28;20033;-68
2022/08/19 09:23:58;;;;;;;16.88;15.27;;;25.70;99.90;;;;;;5050882;28;20029;-68
2022/08/19 09:26:24;;;;;;;17.77;16.05;;;25.80;99.90;;;;;;5046485;28;20029;-64
2022/08/19 09:28:52;;;;;;;17.60;15.93;;;26.00;99.90;;;;;;5051691;28;20227;-66
2022/08/19 09:31:26;;;;;;;15.57;13.38;;;26.00;99.90;;;;;;5049784;28;20032;-67
2022/08/19 09:33:52;;;;;;;;;;;26.20;99.90;;;;;;5049368;28;20025;-68
2022/08/19 09:36:22;;;;;;;17.25;15.40;;;26.30;99.90;;;;;;5046897;28;20540;-67
2022/08/19 09:38:47;;;;;;;16.35;14.75;;;26.40;99.90;;;;;;5049802;28;20036;-67
2022/08/19 09:41:19;;;;;;;17.73;16.05;;;26.40;99.90;;;;;;5049783;28;20112;-67
2022/08/19 09:43:48;;;;;;;16.95;15.25;;;26.50;99.90;;;;;;5051384;28;20017;-67
2022/08/19 09:46:15;;;;;;;16.83;15.23;;;26.40;99.90;;;;;;5049345;28;20553;-67
2022/08/19 09:48:42;;;;;;;17.52;15.73;;;26.50;99.50;;;;;;5049740;28;20495;-67
2022/08/19 09:51:10;;;;;;;16.58;14.88;;;26.40;99.60;;;;;;5049465;28;20052;-67
2022/08/19 09:53:37;;;;;;;16.13;14.50;;;26.40;99.90;;;;;;5050241;28;20033;-67
2022/08/19 09:56:04;;;;;;;16.98;14.95;;;26.50;99.80;;;;;;5046007;28;20368;-67
2022/08/19 09:58:31;;;;;;;16.73;14.75;;;26.50;99.40;;;;;;5062351;28;20028;-67
2022/08/19 10:00:59;;;;;;;18.10;16.27;;;26.40;99.50;;;;;;5036368;28;20117;-67
2022/08/19 10:03:26;;;;;;;16.15;14.52;;;26.40;99.40;;;;;;5058228;28;20115;-67
2022/08/19 10:05:53;;;;;;;15.35;13.80;;;26.50;99.40;;;;;;5050025;28;20396;-68
2022/08/19 10:08:23;;;;;;;16.77;15.25;;;26.50;99.40;;;;;;5037709;28;20121;-67
2022/08/19 10:10:50;;;;;;;16.50;14.80;;;26.50;99.40;;;;;;5040688;28;20036;-67
2022/08/19 10:13:22;;;;;;;16.17;14.52;;;26.60;99.40;;;;;;5049844;28;20025;-67
2022/08/19 10:15:50;;;;;;;16.60;14.90;;;26.50;99.30;;;;;;5051954;28;20058;-67
2022/08/19 10:18:17;;;;;;;15.30;13.65;;;26.50;99.30;;;;;;5050524;28;20040;-67
2022/08/19 10:20:45;;;;;;;16.40;14.75;;;26.60;99.30;;;;;;5036385;28;20072;-67
2022/08/19 10:23:11;;;;;;;16.67;15.07;;;26.60;99.30;;;;;;5050342;28;20484;-67
2022/08/19 10:25:38;;;;;;;15.93;14.30;;;26.50;99.20;;;;;;5047035;28;20032;-67
2022/08/19 10:28:04;;;;;;;15.90;13.02;;;26.50;99.40;;;;;;5049676;28;20380;-67
2022/08/19 10:30:29;;;;;;;15.48;13.93;;;26.50;99.40;;;;;;5048350;28;20040;-67
2022/08/19 10:32:55;;;;;;;14.88;13.43;;;26.50;99.20;;;;;;5050415;28;20436;-67
2022/08/19 10:35:20;;;;;;;15.50;13.98;;;26.40;99.20;;;;;;5047392;28;20041;-67
2022/08/19 10:37:46;;;;;;;15.00;13.60;;;26.40;99.40;;;;;;5050405;28;20036;-67
2022/08/19 10:40:12;;;;;;;15.18;13.68;;;26.40;99.30;;;;;;5028436;28;20020;-69
2022/08/19 10:42:38;;;;;;;15.50;13.88;;;26.40;99.20;;;;;;5050742;28;20079;-67
2022/08/19 10:45:05;;;;;;;17.02;15.30;;;26.30;99.30;;;;;;5037193;28;20021;-67
2022/08/19 10:47:32;;;;;;;14.95;13.45;;;26.30;99.30;;;;;;5045929;28;20082;-69
2022/08/19 10:52:47;;;;;;;15.57;13.93;;;26.20;99.20;;;;;;5045599;28;20239;-68
2022/08/19 10:57:57;;;;;;;14.23;12.73;;;26.20;99.30;;;;;;5054215;28;20074;-68
2022/08/19 11:00:24;;;;;;;14.77;13.38;;;26.10;99.20;;;;;;5040608;28;20037;-67
2022/08/19 11:02:50;;;;;;;14.38;12.90;;;26.10;99.20;;;;;;5045886;28;20075;-68
2022/08/19 11:05:17;;;;;;;15.57;13.30;;;26.10;99.30;;;;;;5049212;28;20076;-68
2022/08/19 11:07:44;;;;;;;14.52;13.02;;;26.10;99.30;;;;;;5047642;28;20439;-68
2022/08/19 11:10:11;;;;;;;14.35;12.98;;;26.10;99.30;;;;;;5049189;28;20048;-68
2022/08/19 11:12:41;;;;;;;14.65;12.65;;;26.10;99.40;;;;;;5043806;28;20064;-67
2022/08/19 11:15:10;;;;;;;13.93;12.52;;;26.20;99.50;;;;;;5051090;28;20490;-67
2022/08/19 11:17:43;;;;;;;14.77;13.20;;;26.10;99.30;;;;;;5049088;28;20500;-67
2022/08/19 11:20:10;;;;;;;14.15;12.75;;;26.00;99.30;;;;;;5053483;28;20035;-67
2022/08/19 11:22:36;;;;;;;14.80;13.27;;;26.00;99.30;;;;;;5047746;28;20029;-67
2022/08/19 11:25:02;;;;;;;15.85;13.35;;;26.00;99.40;;;;;;5057948;28;20040;-67
2022/08/19 11:27:28;;;;;;;15.07;13.45;;;26.00;99.40;;;;;;5054064;28;20036;-67
2022/08/19 11:29:54;;;;;;;12.40;11.10;;;25.90;99.60;;;;;;5053932;28;20099;-67
2022/08/19 11:32:19;;;;;;;18.10;14.32;;;25.90;99.50;;;;;;5050797;28;20059;-67
2022/08/19 11:34:45;;;;;;;15.55;14.00;;;25.90;99.40;;;;;;5054189;28;20498;-67
2022/08/19 11:37:11;;;;;;;13.43;12.13;;;25.90;99.40;;;;;;5044844;28;20025;-67
2022/08/19 11:39:39;;;;;;;13.38;12.07;;;25.90;99.60;;;;;;5049177;28;20489;-67
2022/08/19 11:42:54;;;;;;;12.68;11.38;;;26.00;99.60;;;;;;5046780;28;20029;-67
2022/08/19 11:44:52;;;;;;;12.80;11.57;;;26.10;99.40;;;;;;5052475;28;20060;-66
2022/08/19 11:47:18;;;;;;;12.13;10.82;;;26.10;99.40;;;;;;5061151;28;20084;-66
2022/08/19 11:49:45;;;;;;;13.18;11.65;;;26.10;99.30;;;;;;5055977;28;20068;-66
2022/08/19 11:52:10;;;;;;;13.80;12.30;;;26.10;99.20;;;;;;5057747;28;20033;-67
2022/08/19 11:54:36;;;;;;;12.32;11.13;;;26.20;99.20;;;;;;5060056;28;20040;-67
2022/08/19 11:57:05;;;;;;;14.27;11.95;;;26.10;99.20;;;;;;5048573;28;20029;-67
2022/08/19 11:59:30;;;;;;;14.65;11.52;;;26.10;99.00;;;;;;5052219;28;20060;-68
2022/08/19 12:01:56;;;;;;;11.77;10.57;;;26.00;98.90;;;;;;5050423;28;20056;-67
2022/08/19 12:04:23;;;;;;;13.48;11.10;;;26.00;99.10;;;;;;5052129;28;20025;-66
2022/08/19 12:06:49;;;;;;;14.13;12.05;;;25.90;99.10;;;;;;5047815;28;20063;-67
2022/08/19 12:09:15;;;;;;;12.65;11.35;;;25.90;99.10;;;;;;5033608;28;20112;-67
2022/08/19 12:11:41;;;;;;;11.85;10.55;;;25.90;99.10;;;;;;5051703;28;20124;-67
2022/08/19 12:14:11;;;;;;;10.65;9.45;;;26.00;99.10;;;;;;5052749;28;20017;-67
2022/08/19 12:16:37;;;;;;;11.10;9.75;;;26.00;99.00;;;;;;5052500;28;20041;-67
2022/08/19 12:19:04;;;;;;;10.63;9.63;;;26.00;98.90;;;;;;5052213;28;20037;-67
2022/08/19 12:21:31;;;;;;;10.98;9.88;;;26.10;98.90;;;;;;5051116;28;20416;-67
2022/08/19 12:23:59;;;;;;;11.30;10.20;;;26.10;98.80;;;;;;5051975;28;20039;-67
2022/08/19 12:26:26;;;;;;;10.50;9.50;;;26.10;98.70;;;;;;5049541;28;20195;-67
2022/08/19 12:28:52;;;;;;;11.30;10.05;;;26.20;98.70;;;;;;5051768;28;20067;-67
2022/08/19 12:31:19;;;;;;;10.93;9.82;;;26.20;98.50;;;;;;5050829;28;20060;-67
2022/08/19 12:33:45;;;;;;;11.27;10.00;;;26.30;98.60;;;;;;5051153;28;20047;-68
2022/08/19 12:36:12;;;;;;;9.85;8.38;;;26.40;98.70;;;;;;5055587;28;20357;-67
2022/08/19 12:38:39;;;;;;;10.98;9.98;;;26.50;98.60;;;;;;5056021;28;20056;-67
2022/08/19 12:41:06;;;;;;;11.88;10.68;;;26.60;98.40;;;;;;5037812;28;20024;-67
2022/08/19 12:43:37;;;;;;;13.35;9.52;;;26.60;98.00;;;;;;5050641;28;20033;-67
2022/08/19 12:46:04;;;;;;;10.32;9.32;;;26.70;98.00;;;;;;5051804;28;20037;-67
2022/08/19 12:48:31;;;;;;;10.57;8.82;;;26.60;98.00;;;;;;5049506;28;20435;-67
2022/08/19 12:50:56;;;;;;;9.98;9.00;;;26.60;98.00;;;;;;5049958;28;20124;-67
2022/08/19 12:53:22;;;;;;;9.60;8.57;;;26.70;98.10;;;;;;5051695;28;20028;-67